createdAt,value
2019-05-09T00:02:21.119Z,16.30
2019-05-09T00:04:53.280Z,16.85
2019-05-09T00:07:23.638Z,15.85
2019-05-09T00:09:54.247Z,16.00
2019-05-09T00:12:24.453Z,16.07
2019-05-09T00:14:54.685Z,19.10
2019-05-09T00:18:23.675Z,17.32
2019-05-09T00:21:08.571Z,19.92
2019-05-09T00:23:38.765Z,17.37
2019-05-09T00:26:09.035Z,17.48
2019-05-09T00:28:40.863Z,19.40
2019-05-09T00:31:13.719Z,15.35
2019-05-09T00:33:48.053Z,17.60
2019-05-09T00:36:17.799Z,20.37
2019-05-09T00:38:47.981Z,17.77
2019-05-09T00:41:18.210Z,21.42
2019-05-09T00:43:50.106Z,24.50
2019-05-09T00:46:27.755Z,20.95
2019-05-09T00:48:59.583Z,18.75
2019-05-09T00:51:29.929Z,17.32
2019-05-09T00:54:00.119Z,25.80
2019-05-09T00:56:30.404Z,15.30
2019-05-09T00:59:00.590Z,21.20
2019-05-09T01:01:30.803Z,15.98
2019-05-09T01:04:01.163Z,14.23
2019-05-09T01:06:33.811Z,17.05
2019-05-09T01:09:05.426Z,16.97
2019-05-09T01:11:35.750Z,18.95
2019-05-09T01:14:06.075Z,18.33
2019-05-09T01:16:36.297Z,22.80
2019-05-09T01:19:06.486Z,19.70
2019-05-09T01:21:36.702Z,17.05
2019-05-09T01:24:06.899Z,15.48
2019-05-09T01:26:37.178Z,16.80
2019-05-09T01:29:07.371Z,19.40
2019-05-09T01:31:37.583Z,19.10
2019-05-09T01:34:19.460Z,19.12
2019-05-09T01:37:05.978Z,18.95
2019-05-09T01:39:36.255Z,16.77
2019-05-09T01:42:06.480Z,17.90
2019-05-09T01:44:36.761Z,17.73
2019-05-09T01:47:59.423Z,12.10
2019-05-09T01:50:29.663Z,18.23
2019-05-09T01:52:59.870Z,12.93
2019-05-09T01:55:49.321Z,14.05
2019-05-09T01:58:19.535Z,13.00
2019-05-09T02:00:49.739Z,15.08
2019-05-09T02:03:23.351Z,16.20
2019-05-09T02:05:53.466Z,16.95
2019-05-09T02:08:23.809Z,17.10
2019-05-09T02:10:56.079Z,14.87
2019-05-09T02:13:26.302Z,12.47
2019-05-09T02:15:58.310Z,18.92
2019-05-09T02:18:30.159Z,12.40
2019-05-09T02:21:00.364Z,13.05
2019-05-09T02:23:30.566Z,14.00
2019-05-09T02:26:00.775Z,15.00
2019-05-09T02:28:30.983Z,16.20
2019-05-09T02:31:04.766Z,17.20
2019-05-09T02:33:34.733Z,17.37
2019-05-09T02:36:05.038Z,18.02
2019-05-09T02:38:35.295Z,21.75
2019-05-09T02:41:08.374Z,16.27
2019-05-09T02:43:38.865Z,15.10
2019-05-09T02:46:19.221Z,15.80
2019-05-09T02:48:49.768Z,16.77
2019-05-09T02:51:20.109Z,20.85
2019-05-09T02:53:50.327Z,17.67
2019-05-09T02:56:20.642Z,18.73
2019-05-09T02:58:58.906Z,17.02
2019-05-09T03:01:31.852Z,16.75
2019-05-09T03:04:02.075Z,14.38
2019-05-09T03:06:32.303Z,14.10
2019-05-09T03:09:02.610Z,16.62
2019-05-09T03:11:32.826Z,20.00
2019-05-09T03:14:03.186Z,12.78
2019-05-09T03:16:33.456Z,12.07
2019-05-09T03:19:03.668Z,12.75
2019-05-09T03:21:39.038Z,14.23
2019-05-09T03:24:09.829Z,12.68
2019-05-09T03:26:42.453Z,13.20
2019-05-09T03:29:14.381Z,13.38
2019-05-09T03:31:50.014Z,18.55
2019-05-09T03:34:19.496Z,18.73
2019-05-09T03:36:50.195Z,14.03
2019-05-09T03:39:20.595Z,9.73
2019-05-09T03:41:50.962Z,13.53
2019-05-09T03:44:21.241Z,9.77
2019-05-09T03:47:02.107Z,8.05
2019-05-09T03:49:32.423Z,16.80
2019-05-09T03:54:33.418Z,7.00
2019-05-09T03:57:07.727Z,16.05
2019-05-09T03:59:38.266Z,9.05
2019-05-09T04:02:10.288Z,11.88
2019-05-09T04:04:40.430Z,12.20
2019-05-09T04:07:10.620Z,9.05
2019-05-09T04:12:11.191Z,6.10
2019-05-09T04:14:41.546Z,10.15
2019-05-09T04:17:12.208Z,12.35
2019-05-09T04:19:42.404Z,10.53
2019-05-09T04:22:12.655Z,9.48
2019-05-09T04:24:43.133Z,8.75
2019-05-09T04:27:17.848Z,7.78
2019-05-09T04:29:48.471Z,9.73
2019-05-09T04:32:19.011Z,13.68
2019-05-09T04:34:49.211Z,11.80
2019-05-09T04:37:19.393Z,9.18
2019-05-09T04:42:21.782Z,6.37
2019-05-09T04:44:58.887Z,8.13
2019-05-09T04:47:27.991Z,8.25
2019-05-09T04:49:58.471Z,6.28
2019-05-09T04:52:28.736Z,7.17
2019-05-09T04:55:02.198Z,5.28
2019-05-09T04:57:32.442Z,6.10
2019-05-09T05:00:03.194Z,4.35
2019-05-09T05:02:35.018Z,3.15
2019-05-09T05:05:07.845Z,4.33
2019-05-09T05:07:37.774Z,4.05
2019-05-09T05:10:09.003Z,2.37
2019-05-09T05:12:40.518Z,5.50
2019-05-09T05:15:10.808Z,3.37
2019-05-09T05:17:41.342Z,4.22
2019-05-09T05:20:13.654Z,6.45
2019-05-09T05:22:47.803Z,2.72
2019-05-09T05:25:18.067Z,2.70
2019-05-09T05:27:48.251Z,5.22
2019-05-09T05:30:18.571Z,2.45
2019-05-09T05:32:57.924Z,3.30
2019-05-09T05:35:30.217Z,3.52
2019-05-09T05:38:00.613Z,3.15
2019-05-09T05:40:33.480Z,4.50
2019-05-09T05:43:02.837Z,2.67
2019-05-09T05:45:34.682Z,4.80
2019-05-09T05:48:09.312Z,5.30
2019-05-09T05:50:39.506Z,7.42
2019-05-09T05:53:09.724Z,3.30
2019-05-09T05:55:40.057Z,3.72
2019-05-09T05:58:10.256Z,2.33
2019-05-09T06:00:40.561Z,3.25
2019-05-09T06:03:21.051Z,5.08
2019-05-09T06:05:51.873Z,3.45
2019-05-09T06:08:22.106Z,6.65
2019-05-09T06:10:52.331Z,2.85
2019-05-09T06:13:22.571Z,4.40
2019-05-09T06:15:52.774Z,3.05
2019-05-09T06:18:22.953Z,2.33
2019-05-09T06:20:53.156Z,4.75
2019-05-09T06:23:23.406Z,3.80
2019-05-09T06:28:24.087Z,3.25
2019-05-09T06:30:54.286Z,3.95
2019-05-09T06:33:24.543Z,4.95
2019-05-09T06:35:54.752Z,4.87
2019-05-09T06:38:24.953Z,5.53
2019-05-09T06:40:55.254Z,3.87
2019-05-09T06:43:29.050Z,4.08
2019-05-09T06:46:09.697Z,4.62
2019-05-09T06:48:41.140Z,4.22
2019-05-09T06:51:11.447Z,5.60
2019-05-09T06:53:41.634Z,5.60
2019-05-09T06:56:11.903Z,5.90
2019-05-09T06:58:42.960Z,3.85
2019-05-09T07:01:18.256Z,5.65
2019-05-09T07:04:09.153Z,3.90
2019-05-09T07:10:28.272Z,4.50
2019-05-09T07:12:58.567Z,3.83
2019-05-09T07:15:28.907Z,4.70
2019-05-09T07:17:59.219Z,7.65
2019-05-09T07:24:20.673Z,7.42
2019-05-09T07:26:51.026Z,4.42
2019-05-09T07:29:21.420Z,6.00
2019-05-09T07:35:03.139Z,5.10
2019-05-09T07:37:33.422Z,7.35
2019-05-09T07:40:08.134Z,5.83
2019-05-09T07:42:39.237Z,6.12
2019-05-09T07:45:09.667Z,5.73
2019-05-09T07:47:40.919Z,8.18
2019-05-09T07:50:11.355Z,4.50
2019-05-09T07:52:41.555Z,5.40
2019-05-09T07:55:11.799Z,5.97
2019-05-09T07:57:46.285Z,6.22
2019-05-09T08:00:14.072Z,5.47
2019-05-09T08:02:44.290Z,6.65
2019-05-09T08:05:17.835Z,7.10
2019-05-09T08:07:48.621Z,9.48
2019-05-09T08:10:19.140Z,8.08
2019-05-09T08:12:49.420Z,5.97
2019-05-09T08:15:20.369Z,5.17
2019-05-09T08:17:51.279Z,4.70
2019-05-09T08:20:58.352Z,5.37
2019-05-09T08:23:28.626Z,5.83
2019-05-09T08:25:58.925Z,8.48
2019-05-09T08:28:29.101Z,5.62
2019-05-09T08:30:59.309Z,9.65
2019-05-09T08:33:29.493Z,10.50
2019-05-09T08:35:59.929Z,4.85
2019-05-09T08:38:30.112Z,8.23
2019-05-09T08:41:10.205Z,7.53
2019-05-09T08:43:40.686Z,7.17
2019-05-09T08:46:10.959Z,7.30
2019-05-09T08:48:41.218Z,11.35
2019-05-09T08:51:18.060Z,12.03
2019-05-09T08:53:48.436Z,9.78
2019-05-09T08:56:18.643Z,8.43
2019-05-09T08:58:48.883Z,9.13
2019-05-09T09:01:30.742Z,9.13
2019-05-09T09:03:51.010Z,10.90
2019-05-09T09:06:21.549Z,9.65
2019-05-09T09:08:51.792Z,9.80
2019-05-09T09:11:21.998Z,7.42
2019-05-09T09:13:52.175Z,8.75
2019-05-09T09:16:22.714Z,9.43
2019-05-09T09:18:53.200Z,8.73
2019-05-09T09:21:23.579Z,11.48
2019-05-09T09:23:53.924Z,9.33
2019-05-09T09:26:24.127Z,10.88
2019-05-09T09:28:54.405Z,5.00
2019-05-09T09:31:24.664Z,10.08
2019-05-09T09:33:54.859Z,6.92
2019-05-09T09:36:25.207Z,6.78
2019-05-09T09:38:55.445Z,9.47
2019-05-09T09:41:25.675Z,9.08
2019-05-09T09:43:58.035Z,9.10
2019-05-09T09:46:28.578Z,6.00
2019-05-09T09:48:59.205Z,7.60
2019-05-09T09:51:29.612Z,9.85
2019-05-09T09:53:59.804Z,8.00
2019-05-09T09:56:30.018Z,7.95
2019-05-09T09:59:02.591Z,9.30
2019-05-09T10:01:34.445Z,11.08
2019-05-09T10:04:16.737Z,9.18
2019-05-09T10:06:39.048Z,4.75
2019-05-09T10:09:09.564Z,7.58
2019-05-09T10:11:39.778Z,6.75
2019-05-09T10:14:12.343Z,8.10
2019-05-09T10:17:02.430Z,6.70
2019-05-09T10:19:34.302Z,5.90
2019-05-09T10:22:29.128Z,7.03
2019-05-09T10:24:59.379Z,7.97
2019-05-09T10:27:29.856Z,7.85
2019-05-09T10:30:00.022Z,9.70
2019-05-09T10:32:30.237Z,7.10
2019-05-09T10:35:00.409Z,8.38
2019-05-09T10:37:30.624Z,11.53
2019-05-09T10:40:00.806Z,6.55
2019-05-09T10:42:32.660Z,8.83
2019-05-09T10:45:13.864Z,6.30
2019-05-09T10:47:44.079Z,10.82
2019-05-09T10:50:14.265Z,6.22
2019-05-09T10:52:44.485Z,6.40
2019-05-09T10:55:14.694Z,7.40
2019-05-09T10:57:44.915Z,6.35
2019-05-09T11:00:15.183Z,5.97
2019-05-09T11:02:45.479Z,6.00
2019-05-09T11:05:15.695Z,7.35
2019-05-09T11:11:12.206Z,7.80
2019-05-09T11:13:42.415Z,7.00
2019-05-09T11:16:12.600Z,8.68
2019-05-09T11:18:42.894Z,6.75
2019-05-09T11:21:13.067Z,8.15
2019-05-09T11:23:43.271Z,8.80
2019-05-09T11:26:13.522Z,11.65
2019-05-09T11:28:43.734Z,7.55
2019-05-09T11:31:14.158Z,9.48
2019-05-09T11:33:44.615Z,8.80
2019-05-09T11:36:17.444Z,8.08
2019-05-09T11:38:49.445Z,8.63
2019-05-09T11:41:19.487Z,8.35
2019-05-09T11:43:49.948Z,8.33
2019-05-09T11:46:20.275Z,6.03
2019-05-09T11:48:50.491Z,5.60
2019-05-09T11:51:22.846Z,7.67
2019-05-09T11:53:52.586Z,9.03
2019-05-09T11:56:22.827Z,7.10
2019-05-09T11:58:53.122Z,8.50
2019-05-09T12:01:23.328Z,9.60
2019-05-09T12:03:54.796Z,8.73
2019-05-09T12:06:24.978Z,5.75
2019-05-09T12:08:55.251Z,5.75
2019-05-09T12:11:25.450Z,6.92
2019-05-09T12:13:57.942Z,7.45
2019-05-09T12:16:28.058Z,7.22
2019-05-09T12:18:58.715Z,9.90
2019-05-09T12:21:29.384Z,11.03
2019-05-09T12:23:59.660Z,10.23
2019-05-09T12:26:29.847Z,9.25
2019-05-09T12:29:00.098Z,8.73
2019-05-09T12:31:30.266Z,8.20
2019-05-09T12:34:00.578Z,11.88
2019-05-09T12:36:30.839Z,6.10
2019-05-09T12:39:01.352Z,4.47
2019-05-09T12:44:02.425Z,4.15
2019-05-09T12:46:32.724Z,6.53
2019-05-09T12:49:03.045Z,5.70
2019-05-09T12:51:34.513Z,6.62
2019-05-09T12:54:04.776Z,6.85
2019-05-09T12:56:35.050Z,8.43
2019-05-09T12:59:05.232Z,8.93
2019-05-09T13:01:39.855Z,5.85
2019-05-09T13:04:09.701Z,7.80
2019-05-09T13:06:39.320Z,7.28
2019-05-09T13:09:09.854Z,7.75
2019-05-09T13:11:40.136Z,5.85
2019-05-09T13:14:10.404Z,11.03
2019-05-09T13:16:49.573Z,4.55
2019-05-09T13:19:18.720Z,8.50
2019-05-09T13:21:49.003Z,8.68
2019-05-09T13:24:19.803Z,8.23
2019-05-09T13:26:51.569Z,9.55
2019-05-09T13:29:21.761Z,6.12
2019-05-09T13:31:51.970Z,8.53
2019-05-09T13:34:22.166Z,6.20
2019-05-09T13:36:52.368Z,7.40
2019-05-09T13:39:22.631Z,5.17
2019-05-09T13:41:52.916Z,6.05
2019-05-09T13:44:23.094Z,8.08
2019-05-09T13:46:53.307Z,6.20
2019-05-09T13:49:23.487Z,7.87
2019-05-09T13:52:00.406Z,8.58
2019-05-09T13:54:28.333Z,11.53
2019-05-09T13:57:11.112Z,6.33
2019-05-09T13:59:41.327Z,9.88
2019-05-09T14:02:11.617Z,7.87
2019-05-09T14:04:41.818Z,7.95
2019-05-09T14:07:12.008Z,3.85
2019-05-09T14:09:42.221Z,5.60
2019-05-09T14:12:12.426Z,4.87
2019-05-09T14:14:42.617Z,4.70
2019-05-09T14:17:13.876Z,5.47
2019-05-09T14:19:46.748Z,4.87
2019-05-09T14:22:18.061Z,5.33
2019-05-09T14:24:48.488Z,4.78
2019-05-09T14:27:18.893Z,5.33
2019-05-09T14:29:49.824Z,9.77
2019-05-09T14:32:20.125Z,6.40
2019-05-09T14:34:50.313Z,6.83
2019-05-09T14:37:20.506Z,5.10
2019-05-09T14:39:58.480Z,8.13
2019-05-09T14:42:22.570Z,10.88
2019-05-09T14:44:52.763Z,5.50
2019-05-09T14:47:22.982Z,8.23
2019-05-09T14:49:53.164Z,11.68
2019-05-09T14:52:23.377Z,6.70
2019-05-09T14:54:53.555Z,6.50
2019-05-09T14:57:23.784Z,16.70
2019-05-09T14:59:54.046Z,12.33
2019-05-09T15:02:24.259Z,15.98
2019-05-09T15:04:54.476Z,17.25
2019-05-09T15:07:24.796Z,12.43
2019-05-09T15:09:56.907Z,10.70
2019-05-09T15:12:28.504Z,9.15
2019-05-09T15:14:59.036Z,8.80
2019-05-09T15:17:29.308Z,11.38
2019-05-09T15:20:00.590Z,7.33
2019-05-09T15:22:31.082Z,5.97
2019-05-09T15:25:01.363Z,4.35
2019-05-09T15:27:31.611Z,4.67
2019-05-09T15:30:01.847Z,5.03
2019-05-09T15:32:32.151Z,4.20
2019-05-09T15:35:02.394Z,5.85
2019-05-09T15:37:32.653Z,7.43
2019-05-09T15:40:02.943Z,8.30
2019-05-09T15:42:33.232Z,7.03
2019-05-09T15:45:07.724Z,8.15
2019-05-09T15:47:38.146Z,3.90
2019-05-09T15:50:19.221Z,6.72
2019-05-09T15:52:40.413Z,10.50
2019-05-09T15:55:12.576Z,9.53
2019-05-09T15:57:42.783Z,10.25
2019-05-09T16:00:14.332Z,8.28
2019-05-09T16:02:44.612Z,7.83
2019-05-09T16:05:14.901Z,6.58
2019-05-09T16:07:45.160Z,8.80
2019-05-09T16:10:17.836Z,12.58
2019-05-09T16:12:48.819Z,9.25
2019-05-09T16:15:19.324Z,12.18
2019-05-09T16:17:49.612Z,11.65
2019-05-09T16:20:36.320Z,13.43
2019-05-09T16:22:51.851Z,11.80
2019-05-09T16:25:22.104Z,13.88
2019-05-09T16:27:52.340Z,11.83
2019-05-09T16:30:22.614Z,11.63
2019-05-09T16:32:52.827Z,10.10
2019-05-09T16:35:23.115Z,14.30
2019-05-09T16:38:02.791Z,10.75
2019-05-09T16:40:25.297Z,9.85
2019-05-09T16:42:57.556Z,13.00
2019-05-09T16:45:28.701Z,12.50
2019-05-09T16:47:59.315Z,13.13
2019-05-09T16:50:29.504Z,17.05
2019-05-09T16:53:00.075Z,14.68
2019-05-09T16:55:50.018Z,13.30
2019-05-09T16:58:20.229Z,10.38
2019-05-09T17:00:52.271Z,10.00
2019-05-09T17:03:22.555Z,10.95
2019-05-09T17:05:52.841Z,16.75
2019-05-09T17:08:23.351Z,13.88
2019-05-09T17:10:53.577Z,17.92
2019-05-09T17:13:23.872Z,15.78
2019-05-09T17:15:54.202Z,15.53
2019-05-09T17:18:24.502Z,11.28
2019-05-09T17:21:18.507Z,12.43
2019-05-09T17:23:41.267Z,11.50
2019-05-09T17:26:11.872Z,11.70
2019-05-09T17:28:42.158Z,12.85
2019-05-09T17:31:12.352Z,12.53
2019-05-09T17:33:42.576Z,12.35
2019-05-09T17:36:12.932Z,13.80
2019-05-09T17:38:47.660Z,11.68
2019-05-09T17:41:20.551Z,16.30
2019-05-09T17:43:52.492Z,15.28
2019-05-09T17:46:24.567Z,14.75
2019-05-09T17:48:58.131Z,18.75
2019-05-09T17:51:33.956Z,15.32
2019-05-09T17:54:00.087Z,9.63
2019-05-09T17:56:30.403Z,13.75
2019-05-09T17:59:00.676Z,11.20
2019-05-09T18:01:31.180Z,10.80
2019-05-09T18:04:01.750Z,7.50
2019-05-09T18:06:32.533Z,13.78
2019-05-09T18:09:05.038Z,11.40
2019-05-09T18:11:37.627Z,11.85
2019-05-09T18:14:08.326Z,9.28
2019-05-09T18:16:39.219Z,10.80
2019-05-09T18:19:09.662Z,10.55
2019-05-09T18:21:50.314Z,15.00
2019-05-09T18:24:11.923Z,11.10
2019-05-09T18:26:42.515Z,11.48
2019-05-09T18:29:12.907Z,7.17
2019-05-09T18:31:44.787Z,13.32
2019-05-09T18:34:15.066Z,6.72
2019-05-09T18:36:45.489Z,7.30
2019-05-09T18:39:15.697Z,8.90
2019-05-09T18:41:48.231Z,7.33
2019-05-09T18:44:18.324Z,7.42
2019-05-09T18:46:50.124Z,7.67
2019-05-09T18:49:20.324Z,6.62
2019-05-09T18:52:02.735Z,8.48
2019-05-09T18:54:22.588Z,7.75
2019-05-09T18:56:52.840Z,4.67
2019-05-09T18:59:23.084Z,9.70
2019-05-09T19:01:53.281Z,7.20
2019-05-09T19:04:23.531Z,6.03
2019-05-09T19:06:53.749Z,9.03
2019-05-09T19:09:24.079Z,7.37
2019-05-09T19:11:55.493Z,9.88
2019-05-09T19:14:25.827Z,9.40
2019-05-09T19:17:04.707Z,7.70
2019-05-09T19:19:46.059Z,8.38
2019-05-09T19:24:47.472Z,6.35
2019-05-09T19:27:17.756Z,9.48
2019-05-09T19:29:47.978Z,7.90
2019-05-09T19:32:18.166Z,6.70
2019-05-09T19:34:48.358Z,7.42
2019-05-09T19:37:18.596Z,8.78
2019-05-09T19:39:48.784Z,9.30
2019-05-09T19:42:21.492Z,8.90
2019-05-09T19:44:51.705Z,9.65
2019-05-09T19:47:22.023Z,7.25
2019-05-09T19:49:52.228Z,11.00
2019-05-09T19:52:36.840Z,13.80
2019-05-09T19:54:54.393Z,12.98
2019-05-09T19:57:24.592Z,14.38
2019-05-09T19:59:54.824Z,9.23
2019-05-09T20:02:25.022Z,7.47
2019-05-09T20:04:55.271Z,11.90
2019-05-09T20:07:25.492Z,8.23
2019-05-09T20:10:03.254Z,13.00
2019-05-09T20:12:35.930Z,7.53
2019-05-09T20:15:10.991Z,8.65
2019-05-09T20:17:42.742Z,8.78
2019-05-09T20:20:13.795Z,9.03
2019-05-09T20:22:52.358Z,8.10
2019-05-09T20:25:16.067Z,7.87
2019-05-09T20:30:16.736Z,8.48
2019-05-09T20:32:46.964Z,9.65
2019-05-09T20:35:17.150Z,10.82
2019-05-09T20:37:47.851Z,10.68
2019-05-09T20:40:18.257Z,10.90
2019-05-09T20:42:49.008Z,10.30
2019-05-09T20:45:19.366Z,8.93
2019-05-09T20:47:52.852Z,11.68
2019-05-09T20:50:23.311Z,15.20
2019-05-09T20:53:08.539Z,10.57
2019-05-09T20:55:26.907Z,13.53
2019-05-09T20:57:57.299Z,22.10
2019-05-09T21:02:58.156Z,16.90
2019-05-09T21:05:28.544Z,18.03
2019-05-09T21:07:59.103Z,24.55
2019-05-09T21:10:29.480Z,16.20
2019-05-09T21:12:59.869Z,23.52
2019-05-09T21:15:30.259Z,22.93
2019-05-09T21:18:00.719Z,20.87
2019-05-09T21:20:31.104Z,21.57
2019-05-09T21:23:04.457Z,16.40
2019-05-09T21:25:34.805Z,22.75
2019-05-09T21:28:08.104Z,24.97
2019-05-09T21:30:38.478Z,23.75
2019-05-09T21:33:09.658Z,15.05
2019-05-09T21:35:39.859Z,19.90
2019-05-09T21:38:10.092Z,19.92
2019-05-09T21:40:40.334Z,12.53
2019-05-09T21:43:11.907Z,16.57
2019-05-09T21:45:43.358Z,16.17
2019-05-09T21:48:13.675Z,16.83
2019-05-09T21:53:14.475Z,12.00
2019-05-09T21:55:44.683Z,14.77
2019-05-09T21:58:14.903Z,14.80
2019-05-09T22:00:46.354Z,13.35
2019-05-09T22:03:18.231Z,13.28
2019-05-09T22:05:48.422Z,13.35
2019-05-09T22:08:18.675Z,14.10
2019-05-09T22:10:48.855Z,13.58
2019-05-09T22:13:19.159Z,13.60
2019-05-09T22:15:49.349Z,17.20
2019-05-09T22:18:19.561Z,17.95
2019-05-09T22:20:49.787Z,19.40
2019-05-09T22:23:20.027Z,19.00
2019-05-09T22:25:50.227Z,19.30
2019-05-09T22:28:20.451Z,16.57
2019-05-09T22:30:50.715Z,23.60
2019-05-09T22:33:20.927Z,18.02
2019-05-09T22:35:51.130Z,17.92
2019-05-09T22:38:21.355Z,17.73
2019-05-09T22:40:51.728Z,16.93
2019-05-09T22:43:21.951Z,21.17
2019-05-09T22:45:52.181Z,24.00
2019-05-09T22:48:22.400Z,24.87
2019-05-09T22:50:52.604Z,23.42
2019-05-09T22:53:22.851Z,19.90
2019-05-09T22:55:53.062Z,22.60
2019-05-09T22:58:23.328Z,24.63
2019-05-09T23:00:53.524Z,23.05
2019-05-09T23:03:23.739Z,27.48
2019-05-09T23:05:53.927Z,26.00
2019-05-09T23:08:24.146Z,24.05
2019-05-09T23:10:55.406Z,21.05
2019-05-09T23:13:25.616Z,22.73
2019-05-09T23:15:55.804Z,20.75
2019-05-09T23:18:26.035Z,18.20
2019-05-09T23:20:56.844Z,25.68
2019-05-09T23:23:38.092Z,26.60
2019-05-09T23:26:08.291Z,20.95
2019-05-09T23:29:14.948Z,18.48
2019-05-09T23:31:47.740Z,17.50
2019-05-09T23:34:18.023Z,21.00
2019-05-09T23:36:48.207Z,20.25
2019-05-09T23:39:23.156Z,15.85
2019-05-09T23:41:53.383Z,22.27
2019-05-09T23:45:18.943Z,21.90
2019-05-09T23:47:49.159Z,20.88
2019-05-09T23:50:19.355Z,12.80
2019-05-09T23:52:49.565Z,18.05
2019-05-09T23:55:38.143Z,17.80
2019-05-09T23:58:26.896Z,20.50
